sensor_id;sensor_type;location;lat;lon;timestamp;P1;durP1;ratioP1;P2;durP2;ratioP2
64157;SDS011;50449;51.528;5.076;2023-04-15T00:02:00;29.10;;;27.45;;
64157;SDS011;50449;51.528;5.076;2023-04-15T00:04:26;28.60;;;27.10;;
64157;SDS011;50449;51.528;5.076;2023-04-15T00:06:52;28.17;;;26.38;;
64157;SDS011;50449;51.528;5.076;2023-04-15T00:09:18;29.75;;;27.95;;
64157;SDS011;50449;51.528;5.076;2023-04-15T00:11:45;29.95;;;28.05;;
64157;SDS011;50449;51.528;5.076;2023-04-15T00:14:11;29.95;;;28.10;;
64157;SDS011;50449;51.528;5.076;2023-04-15T00:16:36;29.48;;;27.92;;
64157;SDS011;50449;51.528;5.076;2023-04-15T00:19:02;30.27;;;28.50;;
64157;SDS011;50449;51.528;5.076;2023-04-15T00:21:27;29.27;;;27.58;;
64157;SDS011;50449;51.528;5.076;2023-04-15T00:23:53;29.85;;;28.05;;
64157;SDS011;50449;51.528;5.076;2023-04-15T00:26:19;28.98;;;27.00;;
64157;SDS011;50449;51.528;5.076;2023-04-15T00:28:45;29.58;;;27.70;;
64157;SDS011;50449;51.528;5.076;2023-04-15T00:31:10;29.95;;;27.77;;
64157;SDS011;50449;51.528;5.076;2023-04-15T00:33:36;29.23;;;27.08;;
64157;SDS011;50449;51.528;5.076;2023-04-15T00:36:01;28.65;;;26.83;;
64157;SDS011;50449;51.528;5.076;2023-04-15T00:38:27;26.92;;;25.33;;
64157;SDS011;50449;51.528;5.076;2023-04-15T00:40:53;27.30;;;25.80;;
64157;SDS011;50449;51.528;5.076;2023-04-15T00:43:19;28.63;;;26.75;;
64157;SDS011;50449;51.528;5.076;2023-04-15T00:45:45;28.27;;;26.55;;
64157;SDS011;50449;51.528;5.076;2023-04-15T00:48:11;29.42;;;27.42;;
64157;SDS011;50449;51.528;5.076;2023-04-15T00:50:37;28.95;;;27.15;;
64157;SDS011;50449;51.528;5.076;2023-04-15T00:53:02;29.52;;;27.85;;
64157;SDS011;50449;51.528;5.076;2023-04-15T00:55:28;29.58;;;27.45;;
64157;SDS011;50449;51.528;5.076;2023-04-15T00:57:53;27.42;;;25.83;;
64157;SDS011;50449;51.528;5.076;2023-04-15T01:00:19;28.10;;;26.30;;
64157;SDS011;50449;51.528;5.076;2023-04-15T01:02:44;28.73;;;27.15;;
64157;SDS011;50449;51.528;5.076;2023-04-15T01:05:10;29.80;;;28.02;;
64157;SDS011;50449;51.528;5.076;2023-04-15T01:07:36;30.73;;;28.83;;
64157;SDS011;50449;51.528;5.076;2023-04-15T01:10:02;27.83;;;26.17;;
64157;SDS011;50449;51.528;5.076;2023-04-15T01:12:28;28.33;;;26.73;;
64157;SDS011;50449;51.528;5.076;2023-04-15T01:14:57;27.02;;;25.42;;
64157;SDS011;50449;51.528;5.076;2023-04-15T01:17:23;28.13;;;26.58;;
64157;SDS011;50449;51.528;5.076;2023-04-15T01:19:49;27.73;;;26.33;;
64157;SDS011;50449;51.528;5.076;2023-04-15T01:22:16;29.30;;;27.60;;
64157;SDS011;50449;51.528;5.076;2023-04-15T01:24:42;28.25;;;26.52;;
64157;SDS011;50449;51.528;5.076;2023-04-15T01:27:16;28.00;;;26.35;;
64157;SDS011;50449;51.528;5.076;2023-04-15T01:29:41;27.20;;;25.70;;
64157;SDS011;50449;51.528;5.076;2023-04-15T01:32:07;28.20;;;26.15;;
64157;SDS011;50449;51.528;5.076;2023-04-15T01:34:32;27.65;;;26.05;;
64157;SDS011;50449;51.528;5.076;2023-04-15T01:36:57;26.40;;;24.80;;
64157;SDS011;50449;51.528;5.076;2023-04-15T01:39:23;28.55;;;26.77;;
64157;SDS011;50449;51.528;5.076;2023-04-15T01:41:48;27.10;;;25.60;;
64157;SDS011;50449;51.528;5.076;2023-04-15T01:44:13;28.08;;;26.38;;
64157;SDS011;50449;51.528;5.076;2023-04-15T01:46:39;27.35;;;25.75;;
64157;SDS011;50449;51.528;5.076;2023-04-15T01:49:04;27.55;;;25.83;;
64157;SDS011;50449;51.528;5.076;2023-04-15T01:51:30;26.25;;;24.45;;
64157;SDS011;50449;51.528;5.076;2023-04-15T01:53:56;26.65;;;24.95;;
64157;SDS011;50449;51.528;5.076;2023-04-15T01:56:21;28.00;;;26.17;;
64157;SDS011;50449;51.528;5.076;2023-04-15T01:58:48;26.20;;;24.70;;
64157;SDS011;50449;51.528;5.076;2023-04-15T02:01:13;27.95;;;26.25;;
64157;SDS011;50449;51.528;5.076;2023-04-15T02:03:40;28.17;;;26.48;;
64157;SDS011;50449;51.528;5.076;2023-04-15T02:06:06;27.33;;;25.70;;
64157;SDS011;50449;51.528;5.076;2023-04-15T02:08:32;27.67;;;26.10;;
64157;SDS011;50449;51.528;5.076;2023-04-15T02:10:57;27.20;;;25.48;;
64157;SDS011;50449;51.528;5.076;2023-04-15T02:13:22;27.10;;;25.20;;
64157;SDS011;50449;51.528;5.076;2023-04-15T02:15:48;27.15;;;25.48;;
64157;SDS011;50449;51.528;5.076;2023-04-15T02:18:15;27.65;;;25.95;;
64157;SDS011;50449;51.528;5.076;2023-04-15T02:20:40;26.25;;;24.52;;
64157;SDS011;50449;51.528;5.076;2023-04-15T02:23:07;26.60;;;25.17;;
64157;SDS011;50449;51.528;5.076;2023-04-15T02:25:33;27.50;;;25.55;;
64157;SDS011;50449;51.528;5.076;2023-04-15T02:27:58;28.08;;;26.33;;
64157;SDS011;50449;51.528;5.076;2023-04-15T02:30:24;27.63;;;25.70;;
64157;SDS011;50449;51.528;5.076;2023-04-15T02:32:50;28.15;;;26.55;;
64157;SDS011;50449;51.528;5.076;2023-04-15T02:35:15;27.23;;;25.55;;
64157;SDS011;50449;51.528;5.076;2023-04-15T02:37:43;26.27;;;24.88;;
64157;SDS011;50449;51.528;5.076;2023-04-15T02:40:10;27.67;;;25.75;;
64157;SDS011;50449;51.528;5.076;2023-04-15T02:42:36;27.35;;;25.77;;
64157;SDS011;50449;51.528;5.076;2023-04-15T02:45:05;25.05;;;23.65;;
64157;SDS011;50449;51.528;5.076;2023-04-15T02:47:32;27.73;;;26.02;;
64157;SDS011;50449;51.528;5.076;2023-04-15T02:49:58;27.10;;;25.50;;
64157;SDS011;50449;51.528;5.076;2023-04-15T02:52:24;26.38;;;24.58;;
64157;SDS011;50449;51.528;5.076;2023-04-15T02:54:50;26.00;;;24.02;;
64157;SDS011;50449;51.528;5.076;2023-04-15T02:57:15;28.98;;;26.65;;
64157;SDS011;50449;51.528;5.076;2023-04-15T02:59:41;26.55;;;24.88;;
64157;SDS011;50449;51.528;5.076;2023-04-15T03:02:06;25.67;;;23.98;;
64157;SDS011;50449;51.528;5.076;2023-04-15T03:04:32;26.90;;;25.27;;
64157;SDS011;50449;51.528;5.076;2023-04-15T03:06:57;28.60;;;26.17;;
64157;SDS011;50449;51.528;5.076;2023-04-15T03:09:23;28.48;;;26.50;;
64157;SDS011;50449;51.528;5.076;2023-04-15T03:11:48;26.33;;;24.80;;
64157;SDS011;50449;51.528;5.076;2023-04-15T03:14:16;27.77;;;25.80;;
64157;SDS011;50449;51.528;5.076;2023-04-15T03:16:41;28.42;;;26.50;;
64157;SDS011;50449;51.528;5.076;2023-04-15T03:19:07;26.80;;;24.70;;
64157;SDS011;50449;51.528;5.076;2023-04-15T03:21:32;27.98;;;25.95;;
64157;SDS011;50449;51.528;5.076;2023-04-15T03:23:57;26.17;;;24.67;;
64157;SDS011;50449;51.528;5.076;2023-04-15T03:26:25;27.05;;;25.25;;
64157;SDS011;50449;51.528;5.076;2023-04-15T03:28:51;26.50;;;24.85;;
64157;SDS011;50449;51.528;5.076;2023-04-15T03:31:16;26.25;;;24.67;;
64157;SDS011;50449;51.528;5.076;2023-04-15T03:33:42;25.83;;;24.35;;
64157;SDS011;50449;51.528;5.076;2023-04-15T03:36:07;27.42;;;25.35;;
64157;SDS011;50449;51.528;5.076;2023-04-15T03:38:32;26.88;;;25.08;;
64157;SDS011;50449;51.528;5.076;2023-04-15T03:40:58;27.27;;;25.48;;
64157;SDS011;50449;51.528;5.076;2023-04-15T03:43:23;25.88;;;24.38;;
64157;SDS011;50449;51.528;5.076;2023-04-15T03:45:48;26.55;;;24.65;;
64157;SDS011;50449;51.528;5.076;2023-04-15T03:48:14;25.13;;;23.63;;
64157;SDS011;50449;51.528;5.076;2023-04-15T03:50:39;24.33;;;22.92;;
64157;SDS011;50449;51.528;5.076;2023-04-15T03:53:05;24.83;;;23.13;;
64157;SDS011;50449;51.528;5.076;2023-04-15T03:55:30;26.45;;;24.38;;
64157;SDS011;50449;51.528;5.076;2023-04-15T03:57:56;25.48;;;23.88;;
64157;SDS011;50449;51.528;5.076;2023-04-15T04:00:21;27.75;;;25.27;;
64157;SDS011;50449;51.528;5.076;2023-04-15T04:02:47;24.73;;;23.10;;
64157;SDS011;50449;51.528;5.076;2023-04-15T04:05:12;24.60;;;23.13;;
64157;SDS011;50449;51.528;5.076;2023-04-15T04:07:37;25.20;;;23.52;;
64157;SDS011;50449;51.528;5.076;2023-04-15T04:10:03;24.63;;;22.92;;
64157;SDS011;50449;51.528;5.076;2023-04-15T04:12:28;26.30;;;24.55;;
64157;SDS011;50449;51.528;5.076;2023-04-15T04:14:54;24.50;;;23.00;;
64157;SDS011;50449;51.528;5.076;2023-04-15T04:17:19;26.17;;;24.50;;
64157;SDS011;50449;51.528;5.076;2023-04-15T04:19:45;25.35;;;23.67;;
64157;SDS011;50449;51.528;5.076;2023-04-15T04:22:10;25.25;;;23.48;;
64157;SDS011;50449;51.528;5.076;2023-04-15T04:24:36;24.05;;;22.50;;
64157;SDS011;50449;51.528;5.076;2023-04-15T04:27:01;24.42;;;22.92;;
64157;SDS011;50449;51.528;5.076;2023-04-15T04:29:27;26.42;;;24.65;;
64157;SDS011;50449;51.528;5.076;2023-04-15T04:31:52;24.92;;;23.52;;
64157;SDS011;50449;51.528;5.076;2023-04-15T04:34:17;24.95;;;23.35;;
64157;SDS011;50449;51.528;5.076;2023-04-15T04:36:43;24.10;;;22.63;;
64157;SDS011;50449;51.528;5.076;2023-04-15T04:39:08;24.65;;;23.10;;
64157;SDS011;50449;51.528;5.076;2023-04-15T04:41:34;25.55;;;23.95;;
64157;SDS011;50449;51.528;5.076;2023-04-15T04:43:59;24.52;;;22.92;;
64157;SDS011;50449;51.528;5.076;2023-04-15T04:46:24;25.27;;;23.67;;
64157;SDS011;50449;51.528;5.076;2023-04-15T04:48:50;23.85;;;22.45;;
64157;SDS011;50449;51.528;5.076;2023-04-15T04:51:15;24.48;;;22.95;;
64157;SDS011;50449;51.528;5.076;2023-04-15T04:53:40;24.25;;;22.75;;
64157;SDS011;50449;51.528;5.076;2023-04-15T04:56:07;24.58;;;23.08;;
64157;SDS011;50449;51.528;5.076;2023-04-15T04:58:32;27.50;;;25.63;;
64157;SDS011;50449;51.528;5.076;2023-04-15T05:00:58;24.02;;;22.50;;
64157;SDS011;50449;51.528;5.076;2023-04-15T05:03:23;25.23;;;23.45;;
64157;SDS011;50449;51.528;5.076;2023-04-15T05:05:48;24.40;;;22.88;;
64157;SDS011;50449;51.528;5.076;2023-04-15T05:08:15;26.33;;;24.55;;
64157;SDS011;50449;51.528;5.076;2023-04-15T05:10:40;24.90;;;23.50;;
64157;SDS011;50449;51.528;5.076;2023-04-15T05:13:06;23.73;;;22.27;;
64157;SDS011;50449;51.528;5.076;2023-04-15T05:15:31;26.38;;;24.67;;
64157;SDS011;50449;51.528;5.076;2023-04-15T05:17:57;24.80;;;23.17;;
64157;SDS011;50449;51.528;5.076;2023-04-15T05:20:22;24.17;;;22.70;;
64157;SDS011;50449;51.528;5.076;2023-04-15T05:22:48;25.52;;;23.95;;
64157;SDS011;50449;51.528;5.076;2023-04-15T05:25:13;26.75;;;24.92;;
64157;SDS011;50449;51.528;5.076;2023-04-15T05:27:38;25.45;;;23.88;;
64157;SDS011;50449;51.528;5.076;2023-04-15T05:30:04;25.67;;;24.08;;
64157;SDS011;50449;51.528;5.076;2023-04-15T05:32:31;26.92;;;25.13;;
64157;SDS011;50449;51.528;5.076;2023-04-15T05:34:56;23.63;;;22.23;;
64157;SDS011;50449;51.528;5.076;2023-04-15T05:37:21;23.23;;;21.83;;
64157;SDS011;50449;51.528;5.076;2023-04-15T05:39:47;23.67;;;22.17;;
64157;SDS011;50449;51.528;5.076;2023-04-15T05:42:13;23.00;;;21.50;;
64157;SDS011;50449;51.528;5.076;2023-04-15T05:44:38;26.55;;;24.85;;
64157;SDS011;50449;51.528;5.076;2023-04-15T05:47:03;24.50;;;23.00;;
64157;SDS011;50449;51.528;5.076;2023-04-15T05:49:29;24.50;;;22.83;;
64157;SDS011;50449;51.528;5.076;2023-04-15T05:51:55;23.02;;;21.55;;
64157;SDS011;50449;51.528;5.076;2023-04-15T05:54:20;25.63;;;23.98;;
64157;SDS011;50449;51.528;5.076;2023-04-15T05:56:48;24.42;;;22.77;;
64157;SDS011;50449;51.528;5.076;2023-04-15T05:59:14;24.58;;;23.08;;
64157;SDS011;50449;51.528;5.076;2023-04-15T06:01:39;24.90;;;23.27;;
64157;SDS011;50449;51.528;5.076;2023-04-15T06:04:05;24.40;;;22.90;;
64157;SDS011;50449;51.528;5.076;2023-04-15T06:06:30;24.75;;;23.15;;
64157;SDS011;50449;51.528;5.076;2023-04-15T06:08:56;22.80;;;21.40;;
64157;SDS011;50449;51.528;5.076;2023-04-15T06:11:22;24.15;;;22.65;;
64157;SDS011;50449;51.528;5.076;2023-04-15T06:13:47;26.05;;;24.35;;
64157;SDS011;50449;51.528;5.076;2023-04-15T06:16:13;24.00;;;22.60;;
64157;SDS011;50449;51.528;5.076;2023-04-15T06:18:38;27.38;;;25.25;;
64157;SDS011;50449;51.528;5.076;2023-04-15T06:21:04;24.83;;;23.23;;
64157;SDS011;50449;51.528;5.076;2023-04-15T06:23:29;25.27;;;23.60;;
64157;SDS011;50449;51.528;5.076;2023-04-15T06:25:58;23.80;;;22.20;;
64157;SDS011;50449;51.528;5.076;2023-04-15T06:28:24;24.90;;;23.38;;
64157;SDS011;50449;51.528;5.076;2023-04-15T06:30:49;25.63;;;23.65;;
64157;SDS011;50449;51.528;5.076;2023-04-15T06:33:14;25.17;;;23.27;;
64157;SDS011;50449;51.528;5.076;2023-04-15T06:35:40;21.95;;;20.73;;
64157;SDS011;50449;51.528;5.076;2023-04-15T06:38:05;24.90;;;22.95;;
64157;SDS011;50449;51.528;5.076;2023-04-15T06:40:31;25.13;;;23.23;;
64157;SDS011;50449;51.528;5.076;2023-04-15T06:42:56;26.25;;;24.55;;
64157;SDS011;50449;51.528;5.076;2023-04-15T06:45:22;24.17;;;22.58;;
64157;SDS011;50449;51.528;5.076;2023-04-15T06:47:47;26.02;;;24.15;;
64157;SDS011;50449;51.528;5.076;2023-04-15T06:50:12;25.52;;;23.73;;
64157;SDS011;50449;51.528;5.076;2023-04-15T06:52:38;25.77;;;23.98;;
64157;SDS011;50449;51.528;5.076;2023-04-15T06:55:04;24.35;;;22.65;;
64157;SDS011;50449;51.528;5.076;2023-04-15T06:57:31;22.08;;;20.80;;
64157;SDS011;50449;51.528;5.076;2023-04-15T06:59:56;25.27;;;23.52;;
64157;SDS011;50449;51.528;5.076;2023-04-15T07:02:22;26.27;;;24.55;;
64157;SDS011;50449;51.528;5.076;2023-04-15T07:04:47;28.65;;;26.17;;
64157;SDS011;50449;51.528;5.076;2023-04-15T07:07:12;24.35;;;22.73;;
64157;SDS011;50449;51.528;5.076;2023-04-15T07:09:39;26.90;;;24.90;;
64157;SDS011;50449;51.528;5.076;2023-04-15T07:12:04;25.15;;;23.45;;
64157;SDS011;50449;51.528;5.076;2023-04-15T07:14:30;25.35;;;23.65;;
64157;SDS011;50449;51.528;5.076;2023-04-15T07:16:55;27.05;;;25.00;;
64157;SDS011;50449;51.528;5.076;2023-04-15T07:19:21;26.35;;;24.42;;
64157;SDS011;50449;51.528;5.076;2023-04-15T07:21:47;26.50;;;24.70;;
64157;SDS011;50449;51.528;5.076;2023-04-15T07:24:13;22.35;;;21.08;;
64157;SDS011;50449;51.528;5.076;2023-04-15T07:26:42;25.40;;;23.52;;
64157;SDS011;50449;51.528;5.076;2023-04-15T07:29:08;23.92;;;22.58;;
64157;SDS011;50449;51.528;5.076;2023-04-15T07:31:34;27.08;;;25.27;;
64157;SDS011;50449;51.528;5.076;2023-04-15T07:34:00;25.52;;;23.73;;
64157;SDS011;50449;51.528;5.076;2023-04-15T07:36:27;23.42;;;22.00;;
64157;SDS011;50449;51.528;5.076;2023-04-15T07:38:53;24.98;;;23.38;;
64157;SDS011;50449;51.528;5.076;2023-04-15T07:41:19;25.38;;;23.70;;
64157;SDS011;50449;51.528;5.076;2023-04-15T07:43:45;25.85;;;24.20;;
64157;SDS011;50449;51.528;5.076;2023-04-15T07:46:11;24.52;;;22.92;;
64157;SDS011;50449;51.528;5.076;2023-04-15T07:48:36;25.65;;;23.98;;
64157;SDS011;50449;51.528;5.076;2023-04-15T07:51:02;23.60;;;22.17;;
64157;SDS011;50449;51.528;5.076;2023-04-15T07:53:27;24.55;;;22.85;;
64157;SDS011;50449;51.528;5.076;2023-04-15T07:55:53;23.95;;;22.55;;
64157;SDS011;50449;51.528;5.076;2023-04-15T07:58:18;25.45;;;23.60;;
64157;SDS011;50449;51.528;5.076;2023-04-15T08:00:43;25.08;;;23.20;;
64157;SDS011;50449;51.528;5.076;2023-04-15T08:03:09;27.08;;;25.17;;
64157;SDS011;50449;51.528;5.076;2023-04-15T08:05:34;22.58;;;21.30;;
64157;SDS011;50449;51.528;5.076;2023-04-15T08:08:00;23.77;;;22.27;;
64157;SDS011;50449;51.528;5.076;2023-04-15T08:10:25;25.40;;;23.30;;
64157;SDS011;50449;51.528;5.076;2023-04-15T08:12:51;26.70;;;24.90;;
64157;SDS011;50449;51.528;5.076;2023-04-15T08:15:18;25.52;;;23.73;;
64157;SDS011;50449;51.528;5.076;2023-04-15T08:17:44;25.83;;;24.17;;
64157;SDS011;50449;51.528;5.076;2023-04-15T08:20:10;25.60;;;23.98;;
64157;SDS011;50449;51.528;5.076;2023-04-15T08:22:37;25.55;;;23.98;;
64157;SDS011;50449;51.528;5.076;2023-04-15T08:25:03;25.33;;;23.67;;
64157;SDS011;50449;51.528;5.076;2023-04-15T08:27:28;25.77;;;24.25;;
64157;SDS011;50449;51.528;5.076;2023-04-15T08:29:54;25.92;;;24.27;;
64157;SDS011;50449;51.528;5.076;2023-04-15T08:32:19;25.17;;;23.48;;
64157;SDS011;50449;51.528;5.076;2023-04-15T08:34:45;26.67;;;24.70;;
64157;SDS011;50449;51.528;5.076;2023-04-15T08:37:10;26.27;;;24.60;;
64157;SDS011;50449;51.528;5.076;2023-04-15T08:39:37;25.92;;;24.30;;
64157;SDS011;50449;51.528;5.076;2023-04-15T08:42:02;27.27;;;25.20;;
64157;SDS011;50449;51.528;5.076;2023-04-15T08:44:34;26.48;;;24.38;;
64157;SDS011;50449;51.528;5.076;2023-04-15T08:47:03;24.13;;;22.88;;
64157;SDS011;50449;51.528;5.076;2023-04-15T08:49:32;27.17;;;25.45;;
64157;SDS011;50449;51.528;5.076;2023-04-15T08:52:03;27.80;;;25.33;;
64157;SDS011;50449;51.528;5.076;2023-04-15T08:54:30;26.05;;;24.25;;
64157;SDS011;50449;51.528;5.076;2023-04-15T08:56:56;28.70;;;26.63;;
64157;SDS011;50449;51.528;5.076;2023-04-15T08:59:22;28.63;;;26.65;;
64157;SDS011;50449;51.528;5.076;2023-04-15T09:01:48;27.77;;;25.92;;
64157;SDS011;50449;51.528;5.076;2023-04-15T09:04:15;27.50;;;25.77;;
64157;SDS011;50449;51.528;5.076;2023-04-15T09:06:41;28.23;;;26.40;;
64157;SDS011;50449;51.528;5.076;2023-04-15T09:09:06;29.33;;;27.45;;
64157;SDS011;50449;51.528;5.076;2023-04-15T09:11:32;27.63;;;25.90;;
64157;SDS011;50449;51.528;5.076;2023-04-15T09:13:57;28.63;;;26.50;;
64157;SDS011;50449;51.528;5.076;2023-04-15T09:16:22;28.20;;;26.30;;
64157;SDS011;50449;51.528;5.076;2023-04-15T09:18:48;30.30;;;28.40;;
64157;SDS011;50449;51.528;5.076;2023-04-15T09:21:15;30.75;;;28.75;;
64157;SDS011;50449;51.528;5.076;2023-04-15T09:23:53;28.60;;;26.77;;
64157;SDS011;50449;51.528;5.076;2023-04-15T09:26:42;28.92;;;26.92;;
64157;SDS011;50449;51.528;5.076;2023-04-15T09:29:07;27.10;;;25.60;;
64157;SDS011;50449;51.528;5.076;2023-04-15T09:31:37;29.48;;;27.33;;
64157;SDS011;50449;51.528;5.076;2023-04-15T09:34:04;26.83;;;25.48;;
64157;SDS011;50449;51.528;5.076;2023-04-15T09:36:35;29.05;;;27.42;;
64157;SDS011;50449;51.528;5.076;2023-04-15T09:39:15;28.27;;;26.67;;
64157;SDS011;50449;51.528;5.076;2023-04-15T09:41:41;28.73;;;27.13;;
64157;SDS011;50449;51.528;5.076;2023-04-15T09:44:21;30.60;;;28.67;;
64157;SDS011;50449;51.528;5.076;2023-04-15T09:46:47;29.85;;;28.13;;
64157;SDS011;50449;51.528;5.076;2023-04-15T09:49:12;29.65;;;27.95;;
64157;SDS011;50449;51.528;5.076;2023-04-15T09:51:38;29.05;;;27.40;;
64157;SDS011;50449;51.528;5.076;2023-04-15T09:54:03;28.65;;;26.77;;
64157;SDS011;50449;51.528;5.076;2023-04-15T09:56:36;30.00;;;28.40;;
64157;SDS011;50449;51.528;5.076;2023-04-15T09:59:05;30.95;;;29.05;;
64157;SDS011;50449;51.528;5.076;2023-04-15T10:01:32;30.25;;;28.55;;
64157;SDS011;50449;51.528;5.076;2023-04-15T10:03:58;29.23;;;27.42;;
64157;SDS011;50449;51.528;5.076;2023-04-15T10:06:27;27.55;;;26.15;;
64157;SDS011;50449;51.528;5.076;2023-04-15T10:08:54;30.73;;;28.85;;
64157;SDS011;50449;51.528;5.076;2023-04-15T10:11:21;29.65;;;27.83;;
64157;SDS011;50449;51.528;5.076;2023-04-15T10:13:49;28.92;;;27.40;;
64157;SDS011;50449;51.528;5.076;2023-04-15T10:16:15;34.47;;;32.35;;
64157;SDS011;50449;51.528;5.076;2023-04-15T10:18:45;29.52;;;27.92;;
64157;SDS011;50449;51.528;5.076;2023-04-15T10:21:12;30.73;;;28.77;;
64157;SDS011;50449;51.528;5.076;2023-04-15T10:23:40;28.20;;;26.70;;
64157;SDS011;50449;51.528;5.076;2023-04-15T10:26:06;29.25;;;27.45;;
64157;SDS011;50449;51.528;5.076;2023-04-15T10:28:33;29.58;;;27.83;;
64157;SDS011;50449;51.528;5.076;2023-04-15T10:30:59;30.58;;;28.58;;
64157;SDS011;50449;51.528;5.076;2023-04-15T10:33:25;30.58;;;28.98;;
64157;SDS011;50449;51.528;5.076;2023-04-15T10:35:53;31.15;;;29.40;;
64157;SDS011;50449;51.528;5.076;2023-04-15T10:38:35;30.30;;;28.55;;
64157;SDS011;50449;51.528;5.076;2023-04-15T10:41:19;31.70;;;29.63;;
64157;SDS011;50449;51.528;5.076;2023-04-15T10:46:40;29.80;;;28.20;;
64157;SDS011;50449;51.528;5.076;2023-04-15T10:49:23;31.73;;;29.92;;
64157;SDS011;50449;51.528;5.076;2023-04-15T10:51:50;30.67;;;28.77;;
64157;SDS011;50449;51.528;5.076;2023-04-15T10:59:27;30.33;;;28.73;;
64157;SDS011;50449;51.528;5.076;2023-04-15T11:01:54;31.73;;;29.95;;
64157;SDS011;50449;51.528;5.076;2023-04-15T11:07:15;31.02;;;29.20;;
64157;SDS011;50449;51.528;5.076;2023-04-15T11:09:57;32.20;;;30.50;;
64157;SDS011;50449;51.528;5.076;2023-04-15T11:12:23;31.48;;;29.48;;
64157;SDS011;50449;51.528;5.076;2023-04-15T11:14:59;30.92;;;29.33;;
64157;SDS011;50449;51.528;5.076;2023-04-15T11:17:27;30.55;;;29.00;;
64157;SDS011;50449;51.528;5.076;2023-04-15T11:19:53;32.97;;;31.25;;
64157;SDS011;50449;51.528;5.076;2023-04-15T11:22:18;32.40;;;30.80;;
64157;SDS011;50449;51.528;5.076;2023-04-15T11:24:47;32.70;;;30.73;;
64157;SDS011;50449;51.528;5.076;2023-04-15T11:27:19;31.65;;;29.95;;
64157;SDS011;50449;51.528;5.076;2023-04-15T11:29:45;31.20;;;29.60;;
64157;SDS011;50449;51.528;5.076;2023-04-15T11:32:11;32.28;;;30.63;;
64157;SDS011;50449;51.528;5.076;2023-04-15T11:34:36;31.73;;;30.13;;
64157;SDS011;50449;51.528;5.076;2023-04-15T11:37:05;33.80;;;31.95;;
64157;SDS011;50449;51.528;5.076;2023-04-15T11:39:31;33.08;;;31.38;;
64157;SDS011;50449;51.528;5.076;2023-04-15T11:41:57;32.58;;;30.75;;
64157;SDS011;50449;51.528;5.076;2023-04-15T11:44:22;34.15;;;32.25;;
64157;SDS011;50449;51.528;5.076;2023-04-15T11:46:48;33.13;;;31.33;;
64157;SDS011;50449;51.528;5.076;2023-04-15T11:49:26;33.08;;;31.48;;
64157;SDS011;50449;51.528;5.076;2023-04-15T11:51:55;31.55;;;30.05;;
64157;SDS011;50449;51.528;5.076;2023-04-15T11:54:21;32.47;;;30.88;;
64157;SDS011;50449;51.528;5.076;2023-04-15T11:56:50;33.13;;;31.33;;
64157;SDS011;50449;51.528;5.076;2023-04-15T11:59:16;34.05;;;32.25;;
64157;SDS011;50449;51.528;5.076;2023-04-15T12:01:41;33.58;;;31.88;;
64157;SDS011;50449;51.528;5.076;2023-04-15T12:04:14;33.72;;;31.88;;
64157;SDS011;50449;51.528;5.076;2023-04-15T12:06:44;32.78;;;31.15;;
64157;SDS011;50449;51.528;5.076;2023-04-15T12:11:39;33.17;;;31.48;;
64157;SDS011;50449;51.528;5.076;2023-04-15T12:14:11;33.53;;;31.77;;
64157;SDS011;50449;51.528;5.076;2023-04-15T12:16:44;33.15;;;31.52;;
64157;SDS011;50449;51.528;5.076;2023-04-15T12:19:11;32.80;;;31.08;;
64157;SDS011;50449;51.528;5.076;2023-04-15T12:21:39;32.38;;;30.77;;
64157;SDS011;50449;51.528;5.076;2023-04-15T12:24:08;34.78;;;32.97;;
64157;SDS011;50449;51.528;5.076;2023-04-15T12:26:37;33.30;;;31.40;;
64157;SDS011;50449;51.528;5.076;2023-04-15T12:29:09;35.35;;;33.55;;
64157;SDS011;50449;51.528;5.076;2023-04-15T12:31:35;34.88;;;33.08;;
64157;SDS011;50449;51.528;5.076;2023-04-15T12:34:02;34.25;;;32.40;;
64157;SDS011;50449;51.528;5.076;2023-04-15T12:36:31;33.20;;;31.50;;
64157;SDS011;50449;51.528;5.076;2023-04-15T12:41:28;31.67;;;30.08;;
64157;SDS011;50449;51.528;5.076;2023-04-15T12:43:54;33.63;;;31.95;;
64157;SDS011;50449;51.528;5.076;2023-04-15T12:46:19;34.25;;;32.55;;
64157;SDS011;50449;51.528;5.076;2023-04-15T12:48:46;33.63;;;31.83;;
64157;SDS011;50449;51.528;5.076;2023-04-15T12:51:12;35.67;;;33.78;;
64157;SDS011;50449;51.528;5.076;2023-04-15T12:53:38;35.17;;;33.38;;
64157;SDS011;50449;51.528;5.076;2023-04-15T12:56:03;34.75;;;32.97;;
64157;SDS011;50449;51.528;5.076;2023-04-15T12:58:29;36.15;;;34.25;;
64157;SDS011;50449;51.528;5.076;2023-04-15T13:00:54;34.40;;;32.70;;
64157;SDS011;50449;51.528;5.076;2023-04-15T13:03:21;33.83;;;32.20;;
64157;SDS011;50449;51.528;5.076;2023-04-15T13:05:46;36.00;;;34.00;;
64157;SDS011;50449;51.528;5.076;2023-04-15T13:08:11;37.65;;;35.75;;
64157;SDS011;50449;51.528;5.076;2023-04-15T13:10:37;36.60;;;34.75;;
64157;SDS011;50449;51.528;5.076;2023-04-15T13:13:02;36.25;;;34.47;;
64157;SDS011;50449;51.528;5.076;2023-04-15T13:15:28;38.20;;;36.10;;
64157;SDS011;50449;51.528;5.076;2023-04-15T13:17:54;37.88;;;35.83;;
64157;SDS011;50449;51.528;5.076;2023-04-15T13:20:19;38.42;;;36.50;;
64157;SDS011;50449;51.528;5.076;2023-04-15T13:22:45;38.70;;;36.78;;
64157;SDS011;50449;51.528;5.076;2023-04-15T13:25:10;37.60;;;35.70;;
64157;SDS011;50449;51.528;5.076;2023-04-15T13:27:36;39.22;;;37.33;;
64157;SDS011;50449;51.528;5.076;2023-04-15T13:30:02;37.67;;;35.83;;
64157;SDS011;50449;51.528;5.076;2023-04-15T13:32:28;38.60;;;36.50;;
64157;SDS011;50449;51.528;5.076;2023-04-15T13:34:53;38.55;;;36.75;;
64157;SDS011;50449;51.528;5.076;2023-04-15T13:37:21;40.42;;;38.15;;
64157;SDS011;50449;51.528;5.076;2023-04-15T13:39:53;38.53;;;36.53;;
64157;SDS011;50449;51.528;5.076;2023-04-15T13:42:19;38.67;;;36.60;;
64157;SDS011;50449;51.528;5.076;2023-04-15T13:44:45;39.17;;;37.30;;
64157;SDS011;50449;51.528;5.076;2023-04-15T13:47:11;39.70;;;37.70;;
64157;SDS011;50449;51.528;5.076;2023-04-15T13:49:38;37.60;;;35.80;;
64157;SDS011;50449;51.528;5.076;2023-04-15T13:52:04;37.33;;;35.53;;
64157;SDS011;50449;51.528;5.076;2023-04-15T13:54:30;37.53;;;35.63;;
64157;SDS011;50449;51.528;5.076;2023-04-15T13:56:55;39.15;;;37.25;;
64157;SDS011;50449;51.528;5.076;2023-04-15T13:59:21;41.25;;;39.05;;
64157;SDS011;50449;51.528;5.076;2023-04-15T14:01:47;40.00;;;38.00;;
64157;SDS011;50449;51.528;5.076;2023-04-15T14:04:13;39.58;;;37.33;;
64157;SDS011;50449;51.528;5.076;2023-04-15T14:06:38;41.08;;;38.88;;
64157;SDS011;50449;51.528;5.076;2023-04-15T14:09:04;39.97;;;37.55;;
64157;SDS011;50449;51.528;5.076;2023-04-15T14:11:30;39.08;;;37.17;;
64157;SDS011;50449;51.528;5.076;2023-04-15T14:13:55;39.95;;;37.97;;
64157;SDS011;50449;51.528;5.076;2023-04-15T14:16:21;40.95;;;38.92;;
64157;SDS011;50449;51.528;5.076;2023-04-15T14:18:46;40.83;;;38.83;;
64157;SDS011;50449;51.528;5.076;2023-04-15T14:21:14;39.60;;;37.70;;
64157;SDS011;50449;51.528;5.076;2023-04-15T14:23:40;39.38;;;37.40;;
64157;SDS011;50449;51.528;5.076;2023-04-15T14:26:05;40.33;;;38.42;;
64157;SDS011;50449;51.528;5.076;2023-04-15T14:28:30;41.10;;;39.00;;
64157;SDS011;50449;51.528;5.076;2023-04-15T14:30:56;38.83;;;36.92;;
64157;SDS011;50449;51.528;5.076;2023-04-15T14:33:21;43.13;;;40.72;;